createdAt,value
2023-02-05T00:00:21.200Z,88.50
2023-02-05T00:03:08.938Z,88.74
2023-02-05T00:05:36.979Z,88.73
2023-02-05T00:08:04.997Z,88.57
2023-02-05T00:10:32.813Z,88.70
2023-02-05T00:13:00.548Z,88.80
2023-02-05T00:15:29.161Z,88.85
2023-02-05T00:17:57.089Z,88.65
2023-02-05T00:20:24.850Z,88.69
2023-02-05T00:22:52.613Z,89.00
2023-02-05T00:25:20.324Z,88.87
2023-02-05T00:27:48.131Z,88.63
2023-02-05T00:30:16.147Z,88.58
2023-02-05T00:32:43.919Z,88.89
2023-02-05T00:35:11.698Z,88.42
2023-02-05T00:37:39.487Z,88.70
2023-02-05T00:40:07.767Z,88.60
2023-02-05T00:42:36.076Z,88.65
2023-02-05T00:45:04.293Z,88.42
2023-02-05T00:47:32.170Z,88.48
2023-02-05T00:50:00.188Z,88.25
2023-02-05T00:52:27.989Z,88.34
2023-02-05T00:54:55.675Z,88.22
2023-02-05T00:57:24.847Z,88.10
2023-02-05T00:59:53.402Z,88.28
2023-02-05T01:02:23.988Z,88.40
2023-02-05T01:04:52.282Z,88.54
2023-02-05T01:07:20.613Z,88.55
2023-02-05T01:09:49.440Z,89.21
2023-02-05T01:12:17.193Z,89.37
2023-02-05T01:14:44.909Z,89.03
2023-02-05T01:17:12.628Z,89.24
2023-02-05T01:19:40.338Z,89.22
2023-02-05T01:22:08.664Z,89.23
2023-02-05T01:24:36.449Z,89.05
2023-02-05T01:27:04.397Z,88.64
2023-02-05T01:29:32.138Z,88.91
2023-02-05T01:31:59.991Z,88.62
2023-02-05T01:34:27.753Z,88.98
2023-02-05T01:36:55.573Z,88.82
2023-02-05T01:39:23.722Z,88.80
2023-02-05T01:41:51.480Z,88.92
2023-02-05T01:44:25.154Z,88.91
2023-02-05T01:46:54.733Z,89.11
2023-02-05T01:49:29.658Z,88.91
2023-02-05T01:52:03.004Z,88.98
2023-02-05T01:54:34.195Z,88.77
2023-02-05T01:57:07.736Z,88.82
2023-02-05T01:59:39.195Z,88.67
2023-02-05T02:02:07.745Z,88.54
2023-02-05T02:04:47.329Z,88.53
2023-02-05T02:07:20.368Z,88.31
2023-02-05T02:09:50.155Z,88.24
2023-02-05T02:12:29.714Z,88.25
2023-02-05T02:15:04.773Z,87.95
2023-02-05T02:17:39.228Z,88.20
2023-02-05T02:20:20.145Z,87.85
2023-02-05T02:23:08.345Z,87.78
2023-02-05T02:25:58.069Z,87.90
2023-02-05T02:28:35.636Z,87.89
2023-02-05T02:31:12.918Z,87.56
2023-02-05T02:33:40.711Z,87.54
2023-02-05T02:36:28.790Z,87.43
2023-02-05T02:39:05.793Z,87.51
2023-02-05T02:41:44.211Z,87.29
2023-02-05T02:44:16.493Z,87.41
2023-02-05T02:46:59.978Z,87.13
2023-02-05T02:49:36.708Z,87.07
2023-02-05T02:52:06.860Z,87.12
2023-02-05T02:54:37.243Z,87.27
2023-02-05T02:57:09.672Z,86.88
2023-02-05T02:59:40.719Z,87.01
2023-02-05T03:02:11.767Z,86.96
2023-02-05T03:04:42.810Z,86.64
2023-02-05T03:07:18.606Z,86.43
2023-02-05T03:09:55.641Z,86.60
2023-02-05T03:12:23.847Z,86.50
2023-02-05T03:14:52.905Z,86.47
2023-02-05T03:17:21.763Z,86.21
2023-02-05T03:19:57.887Z,86.55
2023-02-05T03:22:26.645Z,86.28
2023-02-05T03:24:55.834Z,86.20
2023-02-05T03:27:23.687Z,86.47
2023-02-05T03:29:51.847Z,86.31
2023-02-05T03:32:30.301Z,86.23
2023-02-05T03:35:13.137Z,86.67
2023-02-05T03:37:56.256Z,86.30
2023-02-05T03:40:48.777Z,85.93
2023-02-05T03:43:33.176Z,85.68
2023-02-05T03:46:26.067Z,85.71
2023-02-05T03:49:25.507Z,85.75
2023-02-05T03:52:03.006Z,85.75
2023-02-05T03:54:46.133Z,85.56
2023-02-05T03:57:24.191Z,85.77
2023-02-05T03:59:52.769Z,85.75
2023-02-05T04:02:22.628Z,85.72
2023-02-05T04:04:50.479Z,85.34
2023-02-05T04:07:18.500Z,85.29
2023-02-05T04:09:47.210Z,85.81
2023-02-05T04:12:15.572Z,85.77
2023-02-05T04:14:43.810Z,85.89
2023-02-05T04:17:13.158Z,85.59
2023-02-05T04:19:41.545Z,85.44
2023-02-05T04:22:09.601Z,85.78
2023-02-05T04:24:37.864Z,85.65
2023-02-05T04:27:05.832Z,85.76
2023-02-05T04:29:33.727Z,85.49
2023-02-05T04:32:01.710Z,85.48
2023-02-05T04:34:29.471Z,85.82
2023-02-05T04:36:57.575Z,85.11
2023-02-05T04:39:26.400Z,85.78
2023-02-05T04:41:54.206Z,85.34
2023-02-05T04:44:22.235Z,85.63
2023-02-05T04:46:50.046Z,85.71
2023-02-05T04:49:17.733Z,85.62
2023-02-05T04:51:45.945Z,85.65
2023-02-05T04:54:13.829Z,85.53
2023-02-05T04:56:41.944Z,85.62
2023-02-05T04:59:09.736Z,85.84
2023-02-05T05:01:37.530Z,85.42
2023-02-05T05:04:05.328Z,85.73
2023-02-05T05:06:33.075Z,85.40
2023-02-05T05:09:00.867Z,85.66
2023-02-05T05:11:28.671Z,85.83
2023-02-05T05:13:56.476Z,85.90
2023-02-05T05:16:24.309Z,85.96
2023-02-05T05:18:52.444Z,85.66
2023-02-05T05:21:20.327Z,85.76
2023-02-05T05:23:48.028Z,85.34
2023-02-05T05:26:16.061Z,85.35
2023-02-05T05:28:43.859Z,85.47
2023-02-05T05:31:19.759Z,85.60
2023-02-05T05:33:48.021Z,85.72
2023-02-05T05:36:16.216Z,85.58
2023-02-05T05:38:44.697Z,85.26
2023-02-05T05:41:40.766Z,85.53
2023-02-05T05:44:09.709Z,85.44
2023-02-05T05:46:37.469Z,85.65
2023-02-05T05:49:05.249Z,85.36
2023-02-05T05:51:33.421Z,85.42
2023-02-05T05:54:01.143Z,85.54
2023-02-05T05:56:29.027Z,85.71
2023-02-05T05:58:56.860Z,85.50
2023-02-05T06:01:24.649Z,85.44
2023-02-05T06:03:52.362Z,85.32
2023-02-05T06:06:20.236Z,85.06
2023-02-05T06:08:48.018Z,85.37
2023-02-05T06:11:15.820Z,85.34
2023-02-05T06:13:43.584Z,85.26
2023-02-05T06:16:11.409Z,85.24
2023-02-05T06:18:39.165Z,85.37
2023-02-05T06:21:06.950Z,85.38
2023-02-05T06:23:34.779Z,85.57
2023-02-05T06:26:02.593Z,85.19
2023-02-05T06:28:30.335Z,85.21
2023-02-05T06:30:58.250Z,85.50
2023-02-05T06:33:26.120Z,85.30
2023-02-05T06:35:53.870Z,85.60
2023-02-05T06:38:21.693Z,85.69
2023-02-05T06:40:49.482Z,85.31
2023-02-05T06:43:17.206Z,85.45
2023-02-05T06:45:45.015Z,85.22
2023-02-05T06:48:12.973Z,85.29
2023-02-05T06:50:40.729Z,85.10
2023-02-05T06:53:09.592Z,85.06
2023-02-05T06:55:38.693Z,84.91
2023-02-05T06:58:07.746Z,84.71
2023-02-05T07:00:36.132Z,84.77
2023-02-05T07:03:03.913Z,84.78
2023-02-05T07:05:33.679Z,84.50
2023-02-05T07:08:03.969Z,84.56
2023-02-05T07:10:31.867Z,84.29
2023-02-05T07:12:59.630Z,84.28
2023-02-05T07:15:27.523Z,84.23
2023-02-05T07:17:55.936Z,84.22
2023-02-05T07:20:23.673Z,84.33
2023-02-05T07:22:51.493Z,83.83
2023-02-05T07:25:19.361Z,83.92
2023-02-05T07:27:47.190Z,84.37
2023-02-05T07:30:15.286Z,84.18
2023-02-05T07:32:43.073Z,83.74
2023-02-05T07:35:10.841Z,84.06
2023-02-05T07:37:39.555Z,83.82
2023-02-05T07:40:08.172Z,83.55
2023-02-05T07:42:36.040Z,83.34
2023-02-05T07:45:04.834Z,83.04
2023-02-05T07:47:32.552Z,83.16
2023-02-05T07:50:00.469Z,83.44
2023-02-05T07:52:28.378Z,83.18
2023-02-05T07:54:56.233Z,83.19
2023-02-05T07:57:24.258Z,82.74
2023-02-05T07:59:52.631Z,83.01
2023-02-05T08:02:20.454Z,82.86
2023-02-05T08:04:48.297Z,82.38
2023-02-05T08:07:16.027Z,82.51
2023-02-05T08:09:44.047Z,82.12
2023-02-05T08:12:11.991Z,82.19
2023-02-05T08:14:40.229Z,82.27
2023-02-05T08:17:08.175Z,81.65
2023-02-05T08:19:35.957Z,81.31
2023-02-05T08:22:03.961Z,81.36
2023-02-05T08:24:32.732Z,80.64
2023-02-05T08:27:00.590Z,80.35
2023-02-05T08:29:28.414Z,79.56
2023-02-05T08:31:56.491Z,78.50
2023-02-05T08:34:24.381Z,76.95
2023-02-05T08:36:52.176Z,75.37
2023-02-05T08:39:22.243Z,74.55
2023-02-05T08:41:50.000Z,74.36
2023-02-05T08:44:17.737Z,74.90
2023-02-05T08:46:50.166Z,75.51
2023-02-05T08:49:18.883Z,75.48
2023-02-05T08:51:47.399Z,75.66
2023-02-05T08:54:15.625Z,75.81
2023-02-05T08:56:45.616Z,76.48
2023-02-05T08:59:13.360Z,76.11
2023-02-05T09:01:42.967Z,76.49
2023-02-05T09:04:18.924Z,76.06
2023-02-05T09:06:46.906Z,75.85
2023-02-05T09:09:14.640Z,76.08
2023-02-05T09:11:42.771Z,76.06
2023-02-05T09:14:11.142Z,76.65
2023-02-05T09:16:39.484Z,76.81
2023-02-05T09:19:07.403Z,76.48
2023-02-05T09:21:35.172Z,76.46
2023-02-05T09:24:03.053Z,76.69
2023-02-05T09:26:31.064Z,76.42
2023-02-05T09:28:58.918Z,76.38
2023-02-05T09:31:26.825Z,76.43
2023-02-05T09:33:55.843Z,76.52
2023-02-05T09:36:23.886Z,76.60
2023-02-05T09:39:01.889Z,76.17
2023-02-05T09:41:44.896Z,76.15
2023-02-05T09:44:45.074Z,76.26
2023-02-05T09:47:24.655Z,75.87
2023-02-05T09:50:14.472Z,76.12
2023-02-05T09:52:46.276Z,76.09
2023-02-05T09:55:30.090Z,76.38
2023-02-05T09:58:06.629Z,76.15
2023-02-05T10:00:43.147Z,75.73
2023-02-05T10:03:13.831Z,75.96
2023-02-05T10:06:06.297Z,75.59
2023-02-05T10:08:39.906Z,75.39
2023-02-05T10:11:19.221Z,75.02
2023-02-05T10:13:53.867Z,74.69
2023-02-05T10:16:27.753Z,74.25
2023-02-05T10:19:07.534Z,73.72
2023-02-05T10:22:12.582Z,74.16
2023-02-05T10:25:00.149Z,73.21
2023-02-05T10:27:43.477Z,71.48
2023-02-05T10:30:22.344Z,72.45
2023-02-05T10:33:00.681Z,71.77
2023-02-05T10:35:44.353Z,71.47
2023-02-05T10:38:24.811Z,71.87
2023-02-05T10:41:03.764Z,71.64
2023-02-05T10:43:43.052Z,71.90
2023-02-05T10:46:14.004Z,72.01
2023-02-05T10:48:57.390Z,71.54
2023-02-05T10:51:35.606Z,71.29
2023-02-05T10:54:03.529Z,71.54
2023-02-05T10:56:32.041Z,71.64
2023-02-05T10:59:02.587Z,71.93
2023-02-05T11:01:33.841Z,72.36
2023-02-05T11:04:03.951Z,72.03
2023-02-05T11:06:38.156Z,72.27
2023-02-05T11:09:24.411Z,72.27
2023-02-05T11:12:26.843Z,71.79
2023-02-05T11:15:02.632Z,72.14
2023-02-05T11:17:36.160Z,72.57
2023-02-05T11:20:26.347Z,72.45
2023-02-05T11:23:19.453Z,72.86
2023-02-05T11:25:56.301Z,72.74
2023-02-05T11:28:28.810Z,72.78
2023-02-05T11:30:57.633Z,73.05
2023-02-05T11:33:29.537Z,72.95
2023-02-05T11:36:08.145Z,72.36
2023-02-05T11:38:44.240Z,72.59
2023-02-05T11:41:14.219Z,71.96
2023-02-05T11:43:52.715Z,72.89
2023-02-05T11:46:25.462Z,72.58
2023-02-05T11:49:01.592Z,72.21
2023-02-05T11:51:35.536Z,72.68
2023-02-05T11:54:17.812Z,72.59
2023-02-05T11:57:18.264Z,72.51
2023-02-05T12:00:02.965Z,72.72
2023-02-05T12:02:35.736Z,72.92
2023-02-05T12:05:19.681Z,71.99
2023-02-05T12:08:11.143Z,72.56
2023-02-05T12:14:17.652Z,72.44
2023-02-05T12:17:01.286Z,72.13
2023-02-05T12:20:10.509Z,71.95
2023-02-05T12:23:15.376Z,72.40
2023-02-05T12:26:09.430Z,72.82
2023-02-05T12:29:06.620Z,72.37
2023-02-05T12:32:18.911Z,72.22
2023-02-05T12:35:11.932Z,72.47
2023-02-05T12:37:42.689Z,71.89
2023-02-05T12:40:35.087Z,71.14
2023-02-05T12:43:25.339Z,71.45
2023-02-05T12:45:58.917Z,71.55
2023-02-05T12:48:34.768Z,71.33
2023-02-05T12:51:20.259Z,70.94
2023-02-05T12:54:26.744Z,71.36
2023-02-05T12:57:03.316Z,71.38
2023-02-05T12:59:34.068Z,71.19
2023-02-05T13:02:25.118Z,70.73
2023-02-05T13:05:08.834Z,70.91
2023-02-05T13:07:52.990Z,71.10
2023-02-05T13:10:52.880Z,70.30
2023-02-05T13:13:30.340Z,70.73
2023-02-05T13:16:12.738Z,70.92
2023-02-05T13:18:51.497Z,70.84
2023-02-05T13:21:39.436Z,70.31
2023-02-05T13:24:49.098Z,70.77
2023-02-05T13:27:44.438Z,70.74
2023-02-05T13:30:21.372Z,71.02
2023-02-05T13:32:54.700Z,71.62
2023-02-05T13:35:24.041Z,70.91
2023-02-05T13:38:10.636Z,70.49
2023-02-05T13:41:22.007Z,70.24
2023-02-05T13:43:58.692Z,70.63
2023-02-05T13:46:55.023Z,70.42
2023-02-05T13:49:41.682Z,70.55
2023-02-05T13:52:28.452Z,70.69
2023-02-05T13:55:11.476Z,70.60
2023-02-05T13:58:13.526Z,70.69
2023-02-05T14:00:43.703Z,70.75
2023-02-05T14:03:26.747Z,71.22
2023-02-05T14:05:54.603Z,70.46
2023-02-05T14:08:26.035Z,70.33
2023-02-05T14:11:03.807Z,70.27
2023-02-05T14:13:34.311Z,70.38
2023-02-05T14:16:29.421Z,70.63
2023-02-05T14:19:00.534Z,70.60
2023-02-05T14:21:31.517Z,69.90
2023-02-05T14:23:59.248Z,69.85
2023-02-05T14:26:56.189Z,70.22
2023-02-05T14:29:45.685Z,70.42
2023-02-05T14:32:39.117Z,71.27
2023-02-05T14:35:18.737Z,71.25
2023-02-05T14:37:48.349Z,71.15
2023-02-05T14:40:32.517Z,71.46
2023-02-05T14:43:12.816Z,71.54
2023-02-05T14:45:49.471Z,71.48
2023-02-05T14:48:30.895Z,71.63
2023-02-05T14:51:25.072Z,71.72
2023-02-05T14:53:57.993Z,71.21
2023-02-05T14:56:33.852Z,71.70
2023-02-05T14:59:07.439Z,71.29
2023-02-05T15:01:35.248Z,71.66
2023-02-05T15:04:05.238Z,71.87
2023-02-05T15:06:40.103Z,71.43
2023-02-05T15:09:36.251Z,71.53
2023-02-05T15:12:32.231Z,70.88
2023-02-05T15:15:01.132Z,71.12
2023-02-05T15:17:28.803Z,71.46
2023-02-05T15:20:20.134Z,71.77
2023-02-05T15:22:54.578Z,71.51
2023-02-05T15:25:41.122Z,71.48
2023-02-05T15:28:19.001Z,71.74
2023-02-05T15:31:03.139Z,71.72
2023-02-05T15:33:40.271Z,71.87
2023-02-05T15:36:18.673Z,72.12
2023-02-05T15:39:02.677Z,72.02
2023-02-05T15:41:33.546Z,72.21
2023-02-05T15:44:03.145Z,71.74
2023-02-05T15:46:33.268Z,71.40
2023-02-05T15:49:01.766Z,71.91
2023-02-05T15:51:34.345Z,72.18
2023-02-05T15:54:04.521Z,72.26
2023-02-05T15:56:39.285Z,72.14
2023-02-05T15:59:10.094Z,72.53
2023-02-05T16:01:46.637Z,72.48
2023-02-05T16:04:37.492Z,72.52
2023-02-05T16:07:25.918Z,72.60
2023-02-05T16:10:00.057Z,72.65
2023-02-05T16:12:27.968Z,72.62
2023-02-05T16:15:05.419Z,72.56
2023-02-05T16:17:45.175Z,72.70
2023-02-05T16:20:34.523Z,72.39
2023-02-05T16:23:07.462Z,72.57
2023-02-05T16:25:45.071Z,72.73
2023-02-05T16:28:15.917Z,73.25
2023-02-05T16:30:46.144Z,73.32
2023-02-05T16:33:23.881Z,73.59
2023-02-05T16:35:52.357Z,73.88
2023-02-05T16:38:23.370Z,73.46
2023-02-05T16:40:55.550Z,73.29
2023-02-05T16:43:31.564Z,73.49
2023-02-05T16:46:08.386Z,73.35
2023-02-05T16:48:48.157Z,73.43
2023-02-05T16:51:52.983Z,73.84
2023-02-05T16:54:20.641Z,73.93
2023-02-05T16:56:57.340Z,74.01
2023-02-05T16:59:46.759Z,74.21
2023-02-05T17:02:20.798Z,74.17
2023-02-05T17:04:52.060Z,74.39
2023-02-05T17:07:21.735Z,74.41
2023-02-05T17:09:50.315Z,74.28
2023-02-05T17:12:36.108Z,74.67
2023-02-05T17:15:26.826Z,74.44
2023-02-05T17:18:17.062Z,75.21
2023-02-05T17:20:46.064Z,74.69
2023-02-05T17:23:15.901Z,74.85
2023-02-05T17:25:43.587Z,75.19
2023-02-05T17:28:16.483Z,74.93
2023-02-05T17:30:46.149Z,75.23
2023-02-05T17:33:23.234Z,75.29
2023-02-05T17:35:51.083Z,75.36
2023-02-05T17:38:25.926Z,75.24
2023-02-05T17:41:13.644Z,75.48
2023-02-05T17:43:41.802Z,75.51
2023-02-05T17:46:14.325Z,75.76
2023-02-05T17:48:42.379Z,75.90
2023-02-05T17:51:18.602Z,75.88
2023-02-05T17:53:47.117Z,75.74
2023-02-05T17:56:15.292Z,75.91
2023-02-05T17:58:43.040Z,76.21
2023-02-05T18:01:12.877Z,75.86
2023-02-05T18:03:40.685Z,76.12
2023-02-05T18:06:11.619Z,76.68
2023-02-05T18:08:39.606Z,76.36
2023-02-05T18:11:07.780Z,76.63
2023-02-05T18:13:36.459Z,77.02
2023-02-05T18:16:04.534Z,76.63
2023-02-05T18:18:35.362Z,77.55
2023-02-05T18:21:03.696Z,77.03
2023-02-05T18:23:31.894Z,77.26
2023-02-05T18:26:00.452Z,77.14
2023-02-05T18:28:28.791Z,77.54
2023-02-05T18:30:58.281Z,77.98
2023-02-05T18:33:26.324Z,77.39
2023-02-05T18:35:59.046Z,78.32
2023-02-05T18:38:26.996Z,77.94
2023-02-05T18:40:54.757Z,78.07
2023-02-05T18:43:22.441Z,77.78
2023-02-05T18:45:50.228Z,78.50
2023-02-05T18:48:18.139Z,79.22
2023-02-05T18:50:45.883Z,78.66
2023-02-05T18:53:13.618Z,78.79
2023-02-05T18:55:41.425Z,78.72
2023-02-05T18:58:09.207Z,78.37
2023-02-05T19:00:37.242Z,78.38
2023-02-05T19:03:05.251Z,78.26
2023-02-05T19:05:34.896Z,78.13
2023-02-05T19:08:03.140Z,78.12
2023-02-05T19:10:32.116Z,78.62
2023-02-05T19:13:00.000Z,78.75
2023-02-05T19:15:27.877Z,78.18
2023-02-05T19:17:55.655Z,78.71
2023-02-05T19:20:23.475Z,78.11
2023-02-05T19:22:54.243Z,78.66
2023-02-05T19:25:22.120Z,79.04
2023-02-05T19:27:50.008Z,78.99
2023-02-05T19:30:18.327Z,79.27
2023-02-05T19:32:46.117Z,79.61
2023-02-05T19:35:14.428Z,79.68
2023-02-05T19:37:42.145Z,79.44
2023-02-05T19:40:12.388Z,79.53
2023-02-05T19:42:41.585Z,79.52
2023-02-05T19:45:09.403Z,79.52
2023-02-05T19:47:37.179Z,79.70
2023-02-05T19:50:05.060Z,79.29
2023-02-05T19:52:32.826Z,79.41
2023-02-05T19:55:00.757Z,79.32
2023-02-05T19:57:28.674Z,79.65
2023-02-05T19:59:56.518Z,79.53
2023-02-05T20:02:24.262Z,79.69
2023-02-05T20:04:52.192Z,79.90
2023-02-05T20:07:20.037Z,79.94
2023-02-05T20:09:49.269Z,80.15
2023-02-05T20:12:17.083Z,80.10
2023-02-05T20:14:44.954Z,80.08
2023-02-05T20:17:16.417Z,79.76
2023-02-05T20:19:44.309Z,79.80
2023-02-05T20:22:12.050Z,80.18
2023-02-05T20:24:39.817Z,80.09
2023-02-05T20:27:07.567Z,80.29
2023-02-05T20:29:54.055Z,80.34
2023-02-05T20:32:21.807Z,80.27
2023-02-05T20:34:50.364Z,79.93
2023-02-05T20:37:19.877Z,80.50
2023-02-05T20:39:48.320Z,80.31
2023-02-05T20:42:16.520Z,80.23
2023-02-05T20:44:44.821Z,80.57
2023-02-05T20:47:14.689Z,80.75
2023-02-05T20:49:42.965Z,81.39
2023-02-05T20:52:11.595Z,81.11
2023-02-05T20:54:39.631Z,81.13
2023-02-05T20:57:07.924Z,81.06
2023-02-05T20:59:36.576Z,80.80
2023-02-05T21:02:04.748Z,80.99
2023-02-05T21:04:32.577Z,81.11
2023-02-05T21:07:00.936Z,80.75
2023-02-05T21:09:28.888Z,80.78
2023-02-05T21:11:56.626Z,81.13
2023-02-05T21:14:24.513Z,81.44
2023-02-05T21:16:52.451Z,81.34
2023-02-05T21:19:20.302Z,81.11
2023-02-05T21:21:50.034Z,81.14
2023-02-05T21:24:18.946Z,81.37
2023-02-05T21:26:48.831Z,81.29
2023-02-05T21:29:19.595Z,81.53
2023-02-05T21:31:50.655Z,81.68
2023-02-05T21:34:24.132Z,81.60
2023-02-05T21:36:54.058Z,81.63
2023-02-05T21:39:22.650Z,81.46
2023-02-05T21:41:54.090Z,81.20
2023-02-05T21:44:22.625Z,81.71
2023-02-05T21:46:50.485Z,82.08
2023-02-05T21:49:18.171Z,81.57
2023-02-05T21:51:48.201Z,81.43
2023-02-05T21:54:16.206Z,81.68
2023-02-05T21:56:43.965Z,81.62
2023-02-05T21:59:12.774Z,81.65
2023-02-05T22:01:41.541Z,82.85
2023-02-05T22:04:16.228Z,82.90
2023-02-05T22:06:44.552Z,82.84
2023-02-05T22:09:15.659Z,82.04
2023-02-05T22:11:44.660Z,83.28
2023-02-05T22:14:12.591Z,83.23
2023-02-05T22:16:40.798Z,83.02
2023-02-05T22:19:09.381Z,82.53
2023-02-05T22:21:40.908Z,83.21
2023-02-05T22:24:12.856Z,83.03
2023-02-05T22:26:41.552Z,83.74
2023-02-05T22:29:20.995Z,83.48
2023-02-05T22:31:54.005Z,83.68
2023-02-05T22:34:22.275Z,84.61
2023-02-05T22:36:50.386Z,84.07
2023-02-05T22:39:18.130Z,83.37
2023-02-05T22:41:45.954Z,83.76
2023-02-05T22:44:14.197Z,83.87
2023-02-05T22:46:43.657Z,83.90
2023-02-05T22:49:15.175Z,83.79
2023-02-05T22:51:44.159Z,83.62
2023-02-05T22:54:14.699Z,83.69
2023-02-05T22:56:42.749Z,83.83
2023-02-05T22:59:10.490Z,84.24
2023-02-05T23:01:39.162Z,84.36
2023-02-05T23:04:09.984Z,84.42
2023-02-05T23:06:40.872Z,83.92
2023-02-05T23:09:17.600Z,83.64
2023-02-05T23:11:46.340Z,84.21
2023-02-05T23:14:16.165Z,84.39
2023-02-05T23:16:46.285Z,84.36
2023-02-05T23:19:18.717Z,84.55
2023-02-05T23:21:47.587Z,84.65
2023-02-05T23:24:15.915Z,84.14
2023-02-05T23:26:46.661Z,84.63
2023-02-05T23:29:15.728Z,85.15
2023-02-05T23:31:44.116Z,84.54
2023-02-05T23:34:12.678Z,84.19
2023-02-05T23:36:41.196Z,85.24
2023-02-05T23:39:09.255Z,85.17
2023-02-05T23:41:37.288Z,83.37
2023-02-05T23:44:23.266Z,83.21
2023-02-05T23:46:52.109Z,85.19
2023-02-05T23:49:22.365Z,85.61
2023-02-05T23:51:51.836Z,85.65
2023-02-05T23:54:20.380Z,85.77
2023-02-05T23:56:48.170Z,86.19
2023-02-05T23:59:16.488Z,86.64
